createdAt,value
2023-05-05T00:00:50.963Z,33.71
2023-05-05T00:01:50.969Z,33.77
2023-05-05T00:02:50.945Z,33.74
2023-05-05T00:03:51.068Z,33.74
2023-05-05T00:04:50.967Z,33.78
2023-05-05T00:05:50.934Z,33.77
2023-05-05T00:06:50.961Z,33.77
2023-05-05T00:07:50.926Z,33.76
2023-05-05T00:08:50.941Z,33.78
2023-05-05T00:09:50.932Z,33.75
2023-05-05T00:10:50.924Z,33.77
2023-05-05T00:11:50.940Z,33.78
2023-05-05T00:12:50.974Z,33.81
2023-05-05T00:13:50.922Z,33.77
2023-05-05T00:14:50.903Z,33.75
2023-05-05T00:15:50.912Z,33.74
2023-05-05T00:16:50.916Z,33.78
2023-05-05T00:17:50.958Z,33.77
2023-05-05T00:18:50.930Z,33.82
2023-05-05T00:19:50.899Z,33.76
2023-05-05T00:20:50.944Z,33.79
2023-05-05T00:21:50.881Z,33.82
2023-05-05T00:22:50.890Z,33.82
2023-05-05T00:23:50.918Z,33.81
2023-05-05T00:24:50.889Z,33.82
2023-05-05T00:25:50.906Z,33.79
2023-05-05T00:26:50.865Z,33.79
2023-05-05T00:27:50.866Z,33.76
2023-05-05T00:28:50.860Z,33.79
2023-05-05T00:29:50.866Z,33.82
2023-05-05T00:30:50.956Z,33.83
2023-05-05T00:31:50.858Z,33.79
2023-05-05T00:32:50.906Z,33.84
2023-05-05T00:33:50.893Z,33.83
2023-05-05T00:34:50.864Z,33.82
2023-05-05T00:35:50.864Z,33.86
2023-05-05T00:36:50.864Z,33.86
2023-05-05T00:37:50.866Z,33.86
2023-05-05T00:38:50.850Z,33.83
2023-05-05T00:39:50.869Z,33.84
2023-05-05T00:40:50.894Z,33.90
2023-05-05T00:41:50.845Z,33.83
2023-05-05T00:42:50.956Z,33.85
2023-05-05T00:43:50.835Z,33.86
2023-05-05T00:44:50.832Z,33.84
2023-05-05T00:45:50.847Z,33.89
2023-05-05T00:46:50.922Z,33.82
2023-05-05T00:47:50.868Z,33.83
2023-05-05T00:48:50.908Z,33.86
2023-05-05T00:49:50.834Z,33.89
2023-05-05T00:50:50.880Z,33.86
2023-05-05T00:51:50.829Z,33.89
2023-05-05T00:52:50.825Z,33.90
2023-05-05T00:53:50.819Z,33.84
2023-05-05T00:54:50.829Z,33.88
2023-05-05T00:55:50.847Z,33.88
2023-05-05T00:56:50.841Z,33.87
2023-05-05T00:57:50.854Z,33.89
2023-05-05T00:58:50.854Z,33.90
2023-05-05T00:59:50.820Z,33.83
2023-05-05T01:00:50.831Z,33.89
2023-05-05T01:01:50.845Z,33.88
2023-05-05T01:02:50.969Z,33.87
2023-05-05T01:03:50.924Z,33.88
2023-05-05T01:04:50.821Z,33.87
2023-05-05T01:05:50.827Z,33.87
2023-05-05T01:06:50.860Z,33.90
2023-05-05T01:07:50.845Z,33.91
2023-05-05T01:08:50.846Z,33.86
2023-05-05T01:10:00.864Z,33.91
2023-05-05T01:10:51.825Z,33.93
2023-05-05T01:11:50.802Z,33.89
2023-05-05T01:12:50.855Z,33.89
2023-05-05T01:13:50.799Z,33.90
2023-05-05T01:14:50.792Z,33.94
2023-05-05T01:15:50.836Z,33.89
2023-05-05T01:16:50.778Z,33.92
2023-05-05T01:17:50.800Z,33.91
2023-05-05T01:18:50.767Z,33.92
2023-05-05T01:19:50.749Z,33.92
2023-05-05T01:20:50.753Z,33.91
2023-05-05T01:21:50.721Z,33.92
2023-05-05T01:22:50.743Z,33.93
2023-05-05T01:23:50.733Z,33.95
2023-05-05T01:24:50.713Z,33.95
2023-05-05T01:25:50.714Z,33.95
2023-05-05T01:26:50.690Z,33.93
2023-05-05T01:27:50.689Z,33.95
2023-05-05T01:28:50.697Z,33.93
2023-05-05T01:29:50.681Z,33.96
2023-05-05T01:30:50.684Z,33.93
2023-05-05T01:31:50.724Z,33.97
2023-05-05T01:32:50.711Z,33.99
2023-05-05T01:33:50.649Z,33.94
2023-05-05T01:34:50.656Z,33.91
2023-05-05T01:35:50.637Z,33.95
2023-05-05T01:36:50.632Z,33.92
2023-05-05T01:37:50.660Z,33.99
2023-05-05T01:38:50.622Z,33.97
2023-05-05T01:39:50.595Z,33.94
2023-05-05T01:40:50.614Z,33.96
2023-05-05T01:41:50.581Z,34.00
2023-05-05T01:42:50.610Z,34.00
2023-05-05T01:43:50.569Z,33.93
2023-05-05T01:44:50.614Z,33.94
2023-05-05T01:45:50.565Z,33.96
2023-05-05T01:46:50.568Z,33.96
2023-05-05T01:47:50.560Z,34.02
2023-05-05T01:48:50.567Z,33.99
2023-05-05T01:49:50.535Z,34.00
2023-05-05T01:50:50.536Z,33.97
2023-05-05T01:51:50.505Z,34.01
2023-05-05T01:52:50.518Z,33.98
2023-05-05T01:53:50.504Z,33.98
2023-05-05T01:54:50.535Z,33.98
2023-05-05T01:55:50.488Z,33.97
2023-05-05T01:56:50.492Z,33.97
2023-05-05T01:57:50.482Z,33.98
2023-05-05T01:58:50.497Z,33.98
2023-05-05T01:59:50.457Z,34.00
2023-05-05T02:00:50.458Z,33.98
2023-05-05T02:01:50.463Z,33.98
2023-05-05T02:02:50.533Z,33.98
2023-05-05T02:03:50.420Z,34.00
2023-05-05T02:04:50.415Z,34.00
2023-05-05T02:05:50.422Z,34.00
2023-05-05T02:06:50.426Z,34.02
2023-05-05T02:07:50.398Z,33.98
2023-05-05T02:08:50.409Z,34.01
2023-05-05T02:09:50.391Z,34.06
2023-05-05T02:10:50.417Z,34.01
2023-05-05T02:11:50.374Z,33.97
2023-05-05T02:12:50.402Z,34.01
2023-05-05T02:13:50.387Z,34.01
2023-05-05T02:14:50.407Z,34.05
2023-05-05T02:15:50.390Z,33.98
2023-05-05T02:16:50.335Z,34.01
2023-05-05T02:17:50.342Z,34.00
2023-05-05T02:18:50.347Z,34.03
2023-05-05T02:19:50.313Z,34.04
2023-05-05T02:20:50.326Z,34.02
2023-05-05T02:21:50.294Z,34.02
2023-05-05T02:22:50.291Z,34.02
2023-05-05T02:23:50.290Z,34.04
2023-05-05T02:24:50.298Z,34.01
2023-05-05T02:25:50.282Z,34.02
2023-05-05T02:26:50.290Z,34.04
2023-05-05T02:27:50.322Z,34.06
2023-05-05T02:28:50.337Z,34.05
2023-05-05T02:29:50.324Z,34.01
2023-05-05T02:30:50.306Z,34.01
2023-05-05T02:31:50.337Z,34.01
2023-05-05T02:32:50.314Z,34.02
2023-05-05T02:33:50.318Z,34.05
2023-05-05T02:34:50.316Z,34.05
2023-05-05T02:35:50.305Z,34.05
2023-05-05T02:36:50.319Z,34.02
2023-05-05T02:37:50.311Z,34.01
2023-05-05T02:38:50.309Z,34.01
2023-05-05T02:39:50.312Z,34.05
2023-05-05T02:40:50.348Z,34.01
2023-05-05T02:41:50.318Z,34.05
2023-05-05T02:42:50.485Z,34.03
2023-05-05T02:43:50.318Z,34.02
2023-05-05T02:44:50.316Z,34.01
2023-05-05T02:45:50.346Z,34.05
2023-05-05T02:46:50.397Z,34.05
2023-05-05T02:47:50.496Z,34.03
2023-05-05T02:48:50.351Z,34.06
2023-05-05T02:49:50.353Z,34.03
2023-05-05T02:50:50.383Z,34.05
2023-05-05T02:51:50.360Z,34.02
2023-05-05T02:52:50.380Z,34.10
2023-05-05T02:53:50.379Z,34.06
2023-05-05T02:54:50.388Z,34.06
2023-05-05T02:55:50.383Z,34.03
2023-05-05T02:56:50.399Z,34.03
2023-05-05T02:57:50.405Z,34.10
2023-05-05T02:58:50.387Z,34.06
2023-05-05T02:59:50.425Z,34.05
2023-05-05T03:00:50.428Z,34.07
2023-05-05T03:01:50.492Z,34.03
2023-05-05T03:02:50.498Z,34.02
2023-05-05T03:03:50.591Z,34.03
2023-05-05T03:04:50.418Z,34.03
2023-05-05T03:05:50.449Z,34.07
2023-05-05T03:06:50.436Z,34.03
2023-05-05T03:07:50.481Z,34.07
2023-05-05T03:08:50.479Z,34.03
2023-05-05T03:09:50.471Z,34.05
2023-05-05T03:10:50.495Z,34.05
2023-05-05T03:11:50.471Z,34.06
2023-05-05T03:12:50.525Z,34.07
2023-05-05T03:13:50.478Z,34.06
2023-05-05T03:14:50.482Z,34.07
2023-05-05T03:15:50.642Z,34.07
2023-05-05T03:16:50.537Z,34.05
2023-05-05T03:17:50.608Z,34.05
2023-05-05T03:18:50.498Z,34.06
2023-05-05T03:19:50.503Z,34.07
2023-05-05T03:20:50.514Z,34.06
2023-05-05T03:21:50.518Z,34.07
2023-05-05T03:22:50.563Z,34.10
2023-05-05T03:23:50.539Z,34.09
2023-05-05T03:24:50.544Z,34.06
2023-05-05T03:25:50.596Z,34.07
2023-05-05T03:26:50.601Z,34.06
2023-05-05T03:27:50.612Z,34.05
2023-05-05T03:28:50.620Z,34.07
2023-05-05T03:29:50.596Z,34.07
2023-05-05T03:30:50.669Z,34.06
2023-05-05T03:31:50.682Z,34.10
2023-05-05T03:32:50.699Z,34.07
2023-05-05T03:33:50.637Z,34.07
2023-05-05T03:34:50.634Z,34.04
2023-05-05T03:35:50.678Z,34.08
2023-05-05T03:36:50.676Z,34.10
2023-05-05T03:37:50.658Z,34.10
2023-05-05T03:38:50.663Z,34.04
2023-05-05T03:39:50.680Z,34.08
2023-05-05T03:40:50.712Z,34.08
2023-05-05T03:41:50.680Z,34.11
2023-05-05T03:42:50.697Z,34.08
2023-05-05T03:43:50.679Z,34.06
2023-05-05T03:44:50.690Z,34.08
2023-05-05T03:45:50.753Z,34.07
2023-05-05T03:46:50.687Z,34.12
2023-05-05T03:47:50.762Z,34.03
2023-05-05T03:48:50.696Z,34.10
2023-05-05T03:49:50.707Z,34.10
2023-05-05T03:50:50.721Z,34.05
2023-05-05T03:51:50.716Z,34.07
2023-05-05T03:52:50.733Z,34.12
2023-05-05T03:53:50.735Z,34.10
2023-05-05T03:54:50.746Z,34.08
2023-05-05T03:55:50.739Z,34.09
2023-05-05T03:56:50.786Z,34.11
2023-05-05T03:57:50.753Z,34.07
2023-05-05T03:58:50.770Z,34.04
2023-05-05T03:59:50.765Z,34.10
2023-05-05T04:00:50.782Z,34.12
2023-05-05T04:01:50.786Z,34.11
2023-05-05T04:02:50.866Z,34.10
2023-05-05T04:03:50.865Z,34.12
2023-05-05T04:04:50.813Z,34.05
2023-05-05T04:05:50.827Z,34.08
2023-05-05T04:06:50.860Z,34.07
2023-05-05T04:07:50.842Z,34.06
2023-05-05T04:08:50.854Z,34.12
2023-05-05T04:09:50.901Z,34.04
2023-05-05T04:10:50.851Z,34.08
2023-05-05T04:11:50.860Z,34.13
2023-05-05T04:12:50.914Z,34.05
2023-05-05T04:13:50.896Z,34.05
2023-05-05T04:14:50.867Z,34.08
2023-05-05T04:15:50.933Z,34.08
2023-05-05T04:16:50.897Z,34.10
2023-05-05T04:17:50.991Z,34.13
2023-05-05T04:18:50.903Z,34.11
2023-05-05T04:19:50.919Z,34.08
2023-05-05T04:20:50.944Z,34.09
2023-05-05T04:21:50.939Z,34.04
2023-05-05T04:22:52.588Z,34.08
2023-05-05T04:23:50.956Z,34.05
2023-05-05T04:24:50.958Z,34.08
2023-05-05T04:25:50.981Z,34.08
2023-05-05T04:26:50.982Z,34.08
2023-05-05T04:27:51.422Z,34.09
2023-05-05T04:28:51.028Z,34.05
2023-05-05T04:29:50.992Z,34.09
2023-05-05T04:30:51.013Z,34.08
2023-05-05T04:31:51.048Z,34.05
2023-05-05T04:32:51.135Z,34.01
2023-05-05T04:33:51.036Z,34.03
2023-05-05T04:34:51.039Z,34.06
2023-05-05T04:35:51.073Z,34.04
2023-05-05T04:36:51.069Z,34.03
2023-05-05T04:37:51.109Z,34.00
2023-05-05T04:38:51.121Z,34.00
2023-05-05T04:39:51.087Z,34.00
2023-05-05T04:40:51.119Z,34.07
2023-05-05T04:41:51.107Z,34.03
2023-05-05T04:42:51.094Z,34.05
2023-05-05T04:43:51.091Z,34.03
2023-05-05T04:44:51.126Z,33.99
2023-05-05T04:45:51.097Z,34.03
2023-05-05T04:46:51.251Z,34.00
2023-05-05T04:47:51.178Z,34.03
2023-05-05T04:48:51.134Z,34.03
2023-05-05T04:49:51.177Z,34.00
2023-05-05T04:50:51.152Z,33.98
2023-05-05T04:51:51.191Z,33.99
2023-05-05T04:52:52.637Z,34.02
2023-05-05T04:53:51.201Z,33.99
2023-05-05T04:54:51.222Z,34.03
2023-05-05T04:55:51.207Z,33.98
2023-05-05T04:56:51.203Z,33.98
2023-05-05T04:57:51.255Z,33.98
2023-05-05T04:58:51.216Z,33.95
2023-05-05T04:59:51.239Z,33.94
2023-05-05T05:00:51.231Z,33.98
2023-05-05T05:01:51.290Z,33.91
2023-05-05T05:02:51.328Z,33.92
2023-05-05T05:03:51.302Z,33.99
2023-05-05T05:04:51.277Z,33.94
2023-05-05T05:05:51.285Z,33.93
2023-05-05T05:06:51.299Z,33.94
2023-05-05T05:07:51.302Z,33.95
2023-05-05T05:08:51.319Z,33.96
2023-05-05T05:09:51.331Z,33.94
2023-05-05T05:10:51.318Z,33.91
2023-05-05T05:11:51.329Z,33.90
2023-05-05T05:12:51.374Z,33.90
2023-05-05T05:13:51.351Z,33.83
2023-05-05T05:14:51.334Z,33.86
2023-05-05T05:15:51.339Z,33.90
2023-05-05T05:16:51.430Z,33.87
2023-05-05T05:17:51.593Z,33.86
2023-05-05T05:18:51.357Z,33.88
2023-05-05T05:19:51.356Z,33.86
2023-05-05T05:20:51.368Z,33.86
2023-05-05T05:21:51.404Z,33.82
2023-05-05T05:22:51.408Z,33.81
2023-05-05T05:23:51.387Z,33.85
2023-05-05T05:24:51.388Z,33.85
2023-05-05T05:25:51.433Z,33.87
2023-05-05T05:26:51.461Z,33.85
2023-05-05T05:28:02.273Z,33.83
2023-05-05T05:28:52.411Z,33.86
2023-05-05T05:29:51.396Z,33.85
2023-05-05T05:30:51.493Z,33.85
2023-05-05T05:31:51.445Z,33.85
2023-05-05T05:32:51.479Z,33.83
2023-05-05T05:33:51.380Z,33.89
2023-05-05T05:34:51.363Z,33.86
2023-05-05T05:35:51.354Z,34.07
2023-05-05T05:36:51.388Z,33.87
2023-05-05T05:37:51.348Z,33.87
2023-05-05T05:38:51.414Z,33.94
2023-05-05T05:39:51.370Z,34.21
2023-05-05T05:40:51.332Z,34.36
2023-05-05T05:41:51.933Z,34.46
2023-05-05T05:42:51.306Z,34.74
2023-05-05T05:43:51.391Z,35.12
2023-05-05T05:44:51.275Z,35.72
2023-05-05T05:45:51.309Z,36.06
2023-05-05T05:46:51.333Z,35.81
2023-05-05T05:47:51.314Z,35.82
2023-05-05T05:48:51.379Z,35.77
2023-05-05T05:49:51.240Z,35.80
2023-05-05T05:50:51.260Z,35.77
2023-05-05T05:51:51.221Z,35.58
2023-05-05T05:52:51.218Z,35.58
2023-05-05T05:53:51.232Z,35.46
2023-05-05T05:54:51.254Z,35.46
2023-05-05T05:55:51.297Z,35.57
2023-05-05T05:56:51.343Z,35.40
2023-05-05T05:57:51.354Z,35.61
2023-05-05T05:58:51.428Z,35.55
2023-05-05T05:59:51.458Z,35.51
2023-05-05T06:00:51.450Z,35.59
2023-05-05T06:01:51.457Z,35.59
2023-05-05T06:02:51.592Z,35.44
2023-05-05T06:03:51.533Z,35.46
2023-05-05T06:04:51.616Z,35.60
2023-05-05T06:05:51.555Z,35.53
2023-05-05T06:06:51.943Z,35.53
2023-05-05T06:07:51.612Z,35.49
2023-05-05T06:08:51.601Z,35.49
2023-05-05T06:09:51.578Z,35.46
2023-05-05T06:10:51.654Z,35.46
2023-05-05T06:11:51.626Z,35.45
2023-05-05T06:12:51.683Z,35.46
2023-05-05T06:13:51.637Z,35.49
2023-05-05T06:14:51.615Z,35.42
2023-05-05T06:15:51.671Z,35.41
2023-05-05T06:16:51.610Z,35.38
2023-05-05T06:17:51.665Z,35.41
2023-05-05T06:18:51.605Z,35.41
2023-05-05T06:19:52.978Z,35.39
2023-05-05T06:20:51.596Z,35.39
2023-05-05T06:21:51.608Z,35.38
2023-05-05T06:22:51.574Z,35.34
2023-05-05T06:23:51.592Z,35.38
2023-05-05T06:24:51.572Z,35.32
2023-05-05T06:25:51.568Z,35.38
2023-05-05T06:26:51.547Z,35.34
2023-05-05T06:27:51.538Z,35.35
2023-05-05T06:28:51.955Z,35.30
2023-05-05T06:29:51.517Z,35.27
2023-05-05T06:30:51.511Z,35.30
2023-05-05T06:31:51.540Z,35.26
2023-05-05T06:32:51.544Z,35.22
2023-05-05T06:33:51.506Z,35.25
2023-05-05T06:34:51.494Z,35.19
2023-05-05T06:35:51.524Z,35.21
2023-05-05T06:36:51.488Z,35.25
2023-05-05T06:37:51.460Z,35.28
2023-05-05T06:38:51.962Z,35.17
2023-05-05T06:39:51.517Z,35.65
2023-05-05T06:40:51.428Z,35.79
2023-05-05T06:41:51.419Z,36.18
2023-05-05T06:42:51.409Z,36.05
2023-05-05T06:43:51.403Z,36.28
2023-05-05T06:44:51.412Z,36.56
2023-05-05T06:45:51.399Z,36.87
2023-05-05T06:46:51.468Z,36.92
2023-05-05T06:47:51.408Z,37.08
2023-05-05T06:48:51.388Z,37.27
2023-05-05T06:49:51.391Z,37.26
2023-05-05T06:50:51.388Z,37.45
2023-05-05T06:51:51.410Z,37.70
2023-05-05T06:52:51.434Z,37.75
2023-05-05T06:53:51.329Z,37.68
2023-05-05T06:54:51.352Z,37.75
2023-05-05T06:55:51.319Z,37.66
2023-05-05T06:56:51.308Z,37.77
2023-05-05T06:57:51.329Z,37.73
2023-05-05T06:58:51.337Z,37.04
2023-05-05T06:59:51.295Z,36.54
2023-05-05T07:00:51.324Z,35.92
2023-05-05T07:01:51.296Z,35.07
2023-05-05T07:02:51.396Z,34.55
2023-05-05T07:03:51.299Z,34.57
2023-05-05T07:04:51.246Z,34.79
2023-05-05T07:05:51.257Z,34.75
2023-05-05T07:06:51.267Z,34.87
2023-05-05T07:07:51.242Z,34.97
2023-05-05T07:08:51.300Z,35.05
2023-05-05T07:09:51.223Z,35.03
2023-05-05T07:10:51.222Z,35.14
2023-05-05T07:11:51.233Z,35.25
2023-05-05T07:12:51.237Z,35.26
2023-05-05T07:13:51.188Z,35.32
2023-05-05T07:14:51.372Z,35.29
2023-05-05T07:15:51.184Z,35.41
2023-05-05T07:16:51.257Z,35.33
2023-05-05T07:17:51.231Z,35.36
2023-05-05T07:18:51.215Z,35.45
2023-05-05T07:19:51.149Z,35.47
2023-05-05T07:20:51.137Z,35.51
2023-05-05T07:21:51.132Z,35.49
2023-05-05T07:22:51.162Z,35.54
2023-05-05T07:23:51.149Z,35.68
2023-05-05T07:24:51.765Z,35.76
2023-05-05T07:25:51.180Z,35.51
2023-05-05T07:26:51.134Z,35.18
2023-05-05T07:27:51.144Z,35.14
2023-05-05T07:28:51.481Z,35.01
2023-05-05T07:29:51.155Z,35.03
2023-05-05T07:30:51.191Z,35.22
2023-05-05T07:31:51.302Z,35.10
2023-05-05T07:32:51.294Z,35.49
2023-05-05T07:33:51.481Z,35.38
2023-05-05T07:34:51.286Z,34.55
2023-05-05T07:35:52.015Z,34.36
2023-05-05T07:36:51.426Z,34.42
2023-05-05T07:37:51.284Z,34.38
2023-05-05T07:38:51.305Z,33.97
2023-05-05T07:39:51.327Z,33.35
2023-05-05T07:40:51.393Z,33.35
2023-05-05T07:41:51.367Z,32.90
2023-05-05T07:42:51.366Z,32.48
2023-05-05T07:43:51.381Z,31.89
2023-05-05T07:44:51.414Z,32.07
2023-05-05T07:45:51.470Z,31.91
2023-05-05T07:46:51.484Z,31.89
2023-05-05T07:47:51.495Z,31.76
2023-05-05T07:48:51.501Z,31.43
2023-05-05T07:49:51.512Z,31.14
2023-05-05T07:50:51.518Z,31.18
2023-05-05T07:51:51.555Z,31.25
2023-05-05T07:52:56.333Z,31.21
2023-05-05T07:53:52.560Z,31.19
2023-05-05T07:54:51.515Z,31.42
2023-05-05T07:55:51.521Z,31.39
2023-05-05T07:56:51.593Z,31.15
2023-05-05T07:57:51.482Z,31.18
2023-05-05T07:58:51.541Z,31.35
2023-05-05T07:59:51.500Z,31.37
2023-05-05T08:00:51.506Z,31.26
2023-05-05T08:01:53.125Z,31.13
2023-05-05T08:02:51.592Z,31.28
2023-05-05T08:03:51.577Z,31.16
2023-05-05T08:04:51.442Z,31.29
2023-05-05T08:05:51.860Z,31.21
2023-05-05T08:06:51.443Z,31.35
2023-05-05T08:07:51.537Z,31.38
2023-05-05T08:08:51.465Z,31.21
2023-05-05T08:09:51.414Z,31.23
2023-05-05T08:10:51.450Z,31.22
2023-05-05T08:11:51.404Z,31.31
2023-05-05T08:12:51.564Z,31.39
2023-05-05T08:13:51.376Z,31.50
2023-05-05T08:14:51.501Z,31.59
2023-05-05T08:15:51.422Z,31.64
2023-05-05T08:16:51.366Z,31.78
2023-05-05T08:17:51.474Z,31.90
2023-05-05T08:18:51.365Z,31.88
2023-05-05T08:19:51.360Z,31.88
2023-05-05T08:20:51.362Z,31.94
2023-05-05T08:21:51.334Z,32.10
2023-05-05T08:22:51.361Z,32.29
2023-05-05T08:23:51.307Z,32.42
2023-05-05T08:24:51.327Z,31.97
2023-05-05T08:25:51.318Z,31.70
2023-05-05T08:26:51.410Z,31.80
2023-05-05T08:27:51.419Z,31.76
2023-05-05T08:28:51.384Z,31.59
2023-05-05T08:29:51.286Z,31.66
2023-05-05T08:30:51.278Z,31.63
2023-05-05T08:31:51.294Z,31.63
2023-05-05T08:32:51.300Z,31.66
2023-05-05T08:33:51.271Z,31.60
2023-05-05T08:34:51.271Z,31.66
2023-05-05T08:35:51.239Z,31.73
2023-05-05T08:36:51.233Z,31.70
2023-05-05T08:37:51.256Z,31.80
2023-05-05T08:38:51.221Z,31.74
2023-05-05T08:39:51.514Z,31.81
2023-05-05T08:40:51.215Z,31.83
2023-05-05T08:41:51.218Z,32.13
2023-05-05T08:42:51.217Z,32.14
2023-05-05T08:43:51.210Z,32.53
2023-05-05T08:44:51.581Z,32.62
2023-05-05T08:45:51.189Z,32.89
2023-05-05T08:46:51.204Z,32.87
2023-05-05T08:47:51.224Z,33.07
2023-05-05T08:48:51.166Z,33.20
2023-05-05T08:49:51.154Z,33.50
2023-05-05T08:50:51.174Z,33.90
2023-05-05T08:51:51.141Z,33.99
2023-05-05T08:52:51.369Z,34.38
2023-05-05T08:53:51.120Z,34.42
2023-05-05T08:54:51.117Z,34.59
2023-05-05T08:55:51.133Z,34.72
2023-05-05T08:56:51.099Z,34.70
2023-05-05T08:57:51.153Z,34.87
2023-05-05T08:58:51.088Z,34.93
2023-05-05T08:59:51.086Z,35.02
2023-05-05T09:00:51.262Z,35.32
2023-05-05T09:01:51.055Z,35.37
2023-05-05T09:02:51.128Z,35.46
2023-05-05T09:03:51.048Z,35.50
2023-05-05T09:04:51.056Z,35.72
2023-05-05T09:05:51.030Z,35.90
2023-05-05T09:06:51.033Z,35.80
2023-05-05T09:07:51.084Z,36.00
2023-05-05T09:08:51.146Z,35.89
2023-05-05T09:09:51.209Z,36.07
2023-05-05T09:10:51.240Z,35.97
2023-05-05T09:11:51.290Z,35.94
2023-05-05T09:12:51.603Z,35.89
2023-05-05T09:13:51.398Z,35.65
2023-05-05T09:14:51.432Z,35.60
2023-05-05T09:15:51.568Z,35.77
2023-05-05T09:16:51.677Z,35.69
2023-05-05T09:17:51.596Z,36.04
2023-05-05T09:18:51.617Z,36.16
2023-05-05T09:19:51.708Z,36.02
2023-05-05T09:20:51.713Z,36.43
2023-05-05T09:21:51.770Z,36.58
2023-05-05T09:22:51.782Z,36.45
2023-05-05T09:23:51.829Z,36.45
2023-05-05T09:24:51.861Z,36.67
2023-05-05T09:25:51.894Z,36.57
2023-05-05T09:26:51.941Z,36.67
2023-05-05T09:27:51.966Z,36.68
2023-05-05T09:28:52.045Z,36.71
2023-05-05T09:29:52.060Z,36.58
2023-05-05T09:30:52.070Z,36.41
2023-05-05T09:31:52.064Z,35.78
2023-05-05T09:32:52.240Z,35.52
2023-05-05T09:33:52.168Z,35.26
2023-05-05T09:34:52.550Z,35.07
2023-05-05T09:35:52.212Z,35.05
2023-05-05T09:36:52.249Z,35.06
2023-05-05T09:37:52.288Z,35.06
2023-05-05T09:38:52.317Z,35.01
2023-05-05T09:39:52.360Z,34.98
2023-05-05T09:40:52.394Z,34.82
2023-05-05T09:41:52.415Z,34.77
2023-05-05T09:42:52.469Z,34.65
2023-05-05T09:43:52.715Z,34.57
2023-05-05T09:44:52.535Z,34.55
2023-05-05T09:45:52.672Z,34.50
2023-05-05T09:46:52.712Z,34.48
2023-05-05T09:47:56.520Z,34.48
2023-05-05T09:48:53.695Z,34.52
2023-05-05T09:49:52.650Z,34.42
2023-05-05T09:50:52.658Z,34.39
2023-05-05T09:51:52.620Z,34.38
2023-05-05T09:52:52.633Z,34.37
2023-05-05T09:53:52.620Z,34.42
2023-05-05T09:54:52.721Z,34.36
2023-05-05T09:55:52.644Z,34.25
2023-05-05T09:56:52.580Z,34.26
2023-05-05T09:57:52.595Z,34.27
2023-05-05T09:58:52.678Z,34.27
2023-05-05T09:59:52.715Z,34.24
2023-05-05T10:00:52.773Z,34.26
2023-05-05T10:01:52.890Z,34.25
2023-05-05T10:02:52.914Z,34.19
2023-05-05T10:03:53.002Z,34.18
2023-05-05T10:04:53.082Z,34.16
2023-05-05T10:05:53.072Z,34.15
2023-05-05T10:06:53.147Z,34.05
2023-05-05T10:07:53.205Z,33.98
2023-05-05T10:08:53.254Z,34.01
2023-05-05T10:09:53.310Z,33.90
2023-05-05T10:10:53.383Z,33.83
2023-05-05T10:11:53.412Z,33.86
2023-05-05T10:12:53.519Z,33.79
2023-05-05T10:13:53.550Z,33.86
2023-05-05T10:14:53.633Z,33.79
2023-05-05T10:15:53.705Z,33.71
2023-05-05T10:16:53.694Z,33.48
2023-05-05T10:18:06.117Z,33.36
2023-05-05T10:18:54.749Z,33.34
2023-05-05T10:19:53.750Z,33.21
2023-05-05T10:20:53.809Z,33.08
2023-05-05T10:21:53.740Z,32.94
2023-05-05T10:22:53.719Z,32.67
2023-05-05T10:23:53.751Z,32.78
2023-05-05T10:24:53.778Z,32.72
2023-05-05T10:25:53.826Z,32.64
2023-05-05T10:26:53.871Z,32.77
2023-05-05T10:27:54.034Z,32.67
2023-05-05T10:28:53.946Z,32.73
2023-05-05T10:29:53.958Z,32.64
2023-05-05T10:30:53.974Z,32.56
2023-05-05T10:31:54.069Z,32.69
2023-05-05T10:33:03.464Z,32.53
2023-05-05T10:33:55.168Z,32.51
2023-05-05T10:34:54.080Z,32.68
2023-05-05T10:35:54.051Z,32.86
2023-05-05T10:36:54.257Z,33.05
2023-05-05T10:37:54.004Z,32.93
2023-05-05T10:38:53.986Z,33.04
2023-05-05T10:39:53.988Z,33.74
2023-05-05T10:40:53.990Z,33.72
2023-05-05T10:41:53.983Z,33.02
2023-05-05T10:42:54.082Z,32.99
2023-05-05T10:43:53.960Z,32.85
2023-05-05T10:44:54.141Z,32.75
2023-05-05T10:45:54.084Z,32.57
2023-05-05T10:46:53.933Z,32.64
2023-05-05T10:47:53.947Z,32.71
2023-05-05T10:48:53.981Z,32.86
2023-05-05T10:49:54.070Z,33.14
2023-05-05T10:50:53.927Z,33.04
2023-05-05T10:51:54.012Z,32.84
2023-05-05T10:52:54.098Z,33.09
2023-05-05T10:53:54.057Z,32.97
2023-05-05T10:54:54.045Z,32.86
2023-05-05T10:55:54.044Z,32.42
2023-05-05T10:56:54.088Z,32.43
2023-05-05T10:57:54.089Z,31.43
2023-05-05T10:59:00.287Z,31.17
2023-05-05T10:59:55.131Z,30.92
2023-05-05T11:00:54.156Z,31.08
2023-05-05T11:01:54.101Z,31.42
2023-05-05T11:02:54.142Z,31.96
2023-05-05T11:03:54.133Z,31.46
2023-05-05T11:04:54.102Z,31.01
2023-05-05T11:05:54.089Z,30.45
2023-05-05T11:06:54.077Z,30.47
2023-05-05T11:07:54.106Z,30.75
2023-05-05T11:08:54.115Z,30.72
2023-05-05T11:09:54.066Z,30.79
2023-05-05T11:10:54.087Z,31.00
2023-05-05T11:11:54.033Z,30.70
2023-05-05T11:12:54.108Z,31.28
2023-05-05T11:13:54.010Z,31.17
2023-05-05T11:14:54.063Z,31.04
2023-05-05T11:15:54.130Z,30.96
2023-05-05T11:16:54.039Z,31.39
2023-05-05T11:17:54.100Z,31.27
2023-05-05T11:18:53.995Z,31.22
2023-05-05T11:19:53.983Z,30.94
2023-05-05T11:20:53.975Z,30.93
2023-05-05T11:21:53.990Z,30.90
2023-05-05T11:22:54.001Z,30.84
2023-05-05T11:23:54.069Z,30.83
2023-05-05T11:24:54.077Z,30.78
2023-05-05T11:25:54.048Z,30.79
2023-05-05T11:26:54.076Z,30.85
2023-05-05T11:27:54.102Z,30.85
2023-05-05T11:28:54.159Z,30.84
2023-05-05T11:29:54.210Z,30.91
2023-05-05T11:30:54.229Z,30.88
2023-05-05T11:31:54.218Z,30.94
2023-05-05T11:32:54.265Z,30.95
2023-05-05T11:33:54.274Z,31.01
2023-05-05T11:34:54.333Z,31.02
2023-05-05T11:35:54.353Z,31.10
2023-05-05T11:36:54.427Z,31.17
2023-05-05T11:37:54.420Z,31.24
2023-05-05T11:38:54.485Z,31.25
2023-05-05T11:39:54.513Z,31.27
2023-05-05T11:40:54.566Z,31.34
2023-05-05T11:41:54.599Z,31.32
2023-05-05T11:42:54.639Z,31.41
2023-05-05T11:43:54.709Z,31.42
2023-05-05T11:44:54.736Z,31.49
2023-05-05T11:45:54.837Z,31.50
2023-05-05T11:46:54.837Z,31.53
2023-05-05T11:47:55.059Z,31.56
2023-05-05T11:48:54.949Z,31.61
2023-05-05T11:49:54.995Z,31.65
2023-05-05T11:50:55.029Z,31.65
2023-05-05T11:51:55.088Z,31.67
2023-05-05T11:52:55.127Z,31.70
2023-05-05T11:53:56.015Z,31.73
2023-05-05T11:54:55.252Z,31.80
2023-05-05T11:55:55.306Z,31.76
2023-05-05T11:56:55.346Z,31.76
2023-05-05T11:57:55.421Z,31.83
2023-05-05T11:58:55.487Z,31.87
2023-05-05T11:59:55.498Z,31.87
2023-05-05T12:00:55.580Z,31.90
2023-05-05T12:01:55.609Z,31.96
2023-05-05T12:02:55.831Z,31.91
2023-05-05T12:03:55.881Z,31.92
2023-05-05T12:04:55.910Z,31.97
2023-05-05T12:05:55.817Z,32.01
2023-05-05T12:06:55.882Z,32.07
2023-05-05T12:07:55.938Z,32.02
2023-05-05T12:08:55.989Z,31.99
2023-05-05T12:09:56.055Z,32.01
2023-05-05T12:10:56.122Z,32.06
2023-05-05T12:11:56.163Z,32.14
2023-05-05T12:12:56.436Z,32.06
2023-05-05T12:13:56.274Z,32.10
2023-05-05T12:14:56.348Z,32.10
2023-05-05T12:15:56.378Z,32.09
2023-05-05T12:16:56.454Z,32.08
2023-05-05T12:17:56.592Z,32.05
2023-05-05T12:18:56.566Z,32.02
2023-05-05T12:19:56.606Z,32.02
2023-05-05T12:20:56.685Z,32.08
2023-05-05T12:21:56.713Z,32.05
2023-05-05T12:22:56.804Z,32.05
2023-05-05T12:23:56.835Z,32.05
2023-05-05T12:24:56.894Z,32.04
2023-05-05T12:25:56.960Z,32.07
2023-05-05T12:26:57.005Z,32.10
2023-05-05T12:27:57.067Z,32.08
2023-05-05T12:28:57.188Z,32.15
2023-05-05T12:29:57.199Z,32.07
2023-05-05T12:30:57.329Z,32.09
2023-05-05T12:31:57.327Z,32.10
2023-05-05T12:32:57.437Z,32.12
2023-05-05T12:33:57.651Z,32.06
2023-05-05T12:34:57.562Z,32.15
2023-05-05T12:35:57.556Z,32.13
2023-05-05T12:36:57.591Z,32.19
2023-05-05T12:37:57.641Z,32.10
2023-05-05T12:38:57.719Z,32.12
2023-05-05T12:39:57.777Z,32.07
2023-05-05T12:40:57.837Z,32.02
2023-05-05T12:41:57.898Z,32.03
2023-05-05T12:42:57.947Z,32.01
2023-05-05T12:43:58.037Z,31.96
2023-05-05T12:44:58.042Z,31.94
2023-05-05T12:45:58.182Z,31.86
2023-05-05T12:46:58.210Z,31.87
2023-05-05T12:47:58.289Z,31.91
2023-05-05T12:48:58.294Z,31.93
2023-05-05T12:49:58.390Z,31.84
2023-05-05T12:50:58.401Z,31.83
2023-05-05T12:51:58.489Z,31.77
2023-05-05T12:52:58.516Z,31.68